Osgood, IN

2:55 AM EDT on August 30, 2014 (GMT -0400)
KINBATES2 | Change Station
CLOSE
Current Station
Personal Weather Station
Location: Batesville, IN
Elevation: 974 ft
Nearby Weather Stations

Elev 974 ft 39.29 °N, 85.23 °W | Updated 4 minutes ago

Clear
Clear
68.8 °F
Feels Like 68.8 °F
N
0.0
Wind Variable Wind from SSW
Gusts 0.0 mph

Today
High -- | Low -- °F
--% Chance of Precip.
Yesterday
High -- | Low -- °F
Precip. -- in
7:08 AM 8:14 PM
Waxing Crescent, 19% visible
Pressure 30.02 in
Visibility 8.0 miles
Clouds Clear
Dew Point 66 °F
Humidity 89%
Rainfall 0.00 in
Snow Depth Not available.
UV 0 out of 12
Pollen 10.70 out of 12
Air Quality Not available.
Flu Activity Not available.
METAR KCVG 300552Z 18005KT 8SM CLR 23/20 A3005 RMK AO2 SLP166 T02280200 10283 20228 50006

More Conditions Fewer Conditions

Pressure 30.02 in
Visibility 8.0 miles
Clouds Clear
Dew Point 66 °F
Humidity 89%
Rainfall 0.00 in
Snow Depth Not available.
UV 0 out of 12
Pollen 10.70 out of 12
Air Quality Not available.
Flu Activity Not available.
METAR KCVG 300552Z 18005KT 8SM CLR 23/20 A3005 RMK AO2 SLP166 T02280200 10283 20228 50006

More Conditions Fewer Conditions

10-Day Weather Forecast

Almanac

Astronomy

Aug. 30, 2014 Rise Set
Actual Time 7:08 AM EDT 8:14 PM EDT
Civil Twilight 6:40 AM EDT 8:42 PM EDT
Nautical Twilight 6:07 AM EDT 9:14 PM EDT
Astronomical Twilight 5:33 AM EDT 9:49 PM EDT
Moon 11:52 AM EDT 10:51 PM EDT
Length of Visible Light 14h 01m
Length of Day
13h 06m
Tomorrow will be 2m 27s shorter.
Waxing Crescent, 19% of the Moon is Illuminated
Today
Waxing Crescent
Sep 2
First Quarter
Sep 8
Full
Sep 15
Last Quarter
Sep 24
New

Today's Extremes

State Highs State Lows

Community

WunderPhotos

Upload Photos

1,748,462 photos uploaded!

Nearby

Snow Depth

Station Depth Elevation
No new snow has been reported.

Earthquake Activity

City Distance Mag. Time & Date
No recent earthquake activity has been reported nearby.
Minimum magnitude displayed is 2.5.

Coastal Water Temperatures

Place Temperature
No Stations Reporting

Nearby Weather Stations